Time;durP1;ratioP1;P1;durP2;ratioP2;P2;SDS_P1;SDS_P2;PMS_P1;PMS_P2;Temp;Humidity;BMP_temperature;BMP_pressure;BME280_temperature;BME280_humidity;BME280_pressure;Samples;Min_cycle;Max_cycle;Signal;HPM_P1;HPM_P2
2023/11/13 00:00:14;;;;;;;39.30;28.10;;;5.60;99.90;;;;;;5063343;28;20204;-76
2023/11/13 00:02:43;;;;;;;40.63;28.15;;;5.60;99.90;;;;;;5072482;28;20223;-75
2023/11/13 00:05:11;;;;;;;44.03;29.38;;;5.60;99.90;;;;;;5070807;28;20229;-74
2023/11/13 00:07:37;;;;;;;41.17;27.65;;;5.60;99.90;;;;;;5072318;28;20634;-75
2023/11/13 00:10:08;;;;;;;48.95;31.13;;;5.60;99.90;;;;;;5072091;28;20226;-75
2023/11/13 00:12:35;;;;;;;47.28;33.28;;;5.60;99.90;;;;;;5072514;28;20226;-76
2023/11/13 00:15:03;;;;;;;32.90;25.90;;;5.60;99.90;;;;;;5071877;28;20219;-75
2023/11/13 00:17:30;;;;;;;50.55;30.42;;;5.60;99.90;;;;;;5070480;28;20656;-77
2023/11/13 00:19:59;;;;;;;44.30;30.77;;;5.50;99.90;;;;;;5073057;28;20199;-75
2023/11/13 00:22:25;;;;;;;37.85;27.73;;;5.60;99.90;;;;;;5062224;28;20282;-75
2023/11/13 00:24:52;;;;;;;44.22;28.35;;;5.50;99.90;;;;;;5064787;28;20307;-76
2023/11/13 00:27:19;;;;;;;54.28;33.33;;;5.50;99.90;;;;;;5065116;28;20684;-75
2023/11/13 00:29:46;;;;;;;47.20;29.25;;;5.40;99.90;;;;;;5068821;28;20207;-74
2023/11/13 00:32:13;;;;;;;45.78;33.13;;;5.50;99.90;;;;;;5067841;28;20204;-75
2023/11/13 00:34:40;;;;;;;49.95;32.53;;;5.50;99.90;;;;;;5070398;28;20261;-75
2023/11/13 00:37:08;;;;;;;41.33;28.65;;;5.50;99.90;;;;;;5069566;28;20200;-75
2023/11/13 00:39:35;;;;;;;48.70;31.55;;;5.60;99.90;;;;;;5061426;28;20397;-74
2023/11/13 00:42:02;;;;;;;39.23;28.30;;;5.60;99.90;;;;;;5070807;28;20195;-74
2023/11/13 00:44:29;;;;;;;43.42;29.27;;;5.70;99.90;;;;;;5066597;28;20483;-73
2023/11/13 00:46:57;;;;;;;40.55;26.10;;;5.70;99.90;;;;;;5065762;28;20230;-75
2023/11/13 00:49:24;;;;;;;45.92;29.13;;;5.60;99.90;;;;;;5068397;28;20215;-74
2023/11/13 00:51:53;;;;;;;40.22;29.63;;;5.70;99.90;;;;;;5071268;28;20286;-74
2023/11/13 00:54:21;;;;;;;35.65;26.05;;;5.60;99.90;;;;;;5068555;28;20219;-73
2023/11/13 00:56:48;;;;;;;48.45;31.73;;;5.60;99.90;;;;;;5069283;28;20204;-73
2023/11/13 00:59:15;;;;;;;47.17;31.55;;;5.60;99.90;;;;;;5065576;28;20293;-74
2023/11/13 01:01:42;;;;;;;51.47;32.65;;;5.60;99.90;;;;;;5066265;28;20202;-75
2023/11/13 01:04:08;;;;;;;51.42;32.30;;;5.40;99.90;;;;;;5066168;28;20245;-76
2023/11/13 01:06:36;;;;;;;47.50;30.52;;;5.40;99.90;;;;;;5072273;28;20264;-75
2023/11/13 01:09:03;;;;;;;50.05;34.13;;;5.30;99.90;;;;;;5064746;28;20305;-75
2023/11/13 01:11:31;;;;;;;45.63;30.65;;;5.30;99.90;;;;;;5069698;28;20200;-76
2023/11/13 01:13:58;;;;;;;41.63;29.75;;;5.30;99.90;;;;;;5072163;28;20269;-74
2023/11/13 01:16:25;;;;;;;46.28;28.50;;;5.30;99.90;;;;;;5064128;28;20665;-77
2023/11/13 01:18:53;;;;;;;45.83;32.28;;;5.30;99.90;;;;;;5069808;28;20745;-75
2023/11/13 01:21:20;;;;;;;46.97;32.75;;;5.20;99.90;;;;;;5071472;28;20257;-75
2023/11/13 01:23:47;;;;;;;48.15;32.95;;;5.20;99.90;;;;;;5071578;28;20250;-75
2023/11/13 01:26:14;;;;;;;54.88;31.83;;;5.20;99.90;;;;;;5060886;28;20212;-74
2023/11/13 01:28:42;;;;;;;47.05;32.20;;;5.20;99.90;;;;;;5074394;28;20209;-76
2023/11/13 01:31:10;;;;;;;45.55;31.02;;;5.20;99.90;;;;;;5070913;28;20286;-74
2023/11/13 01:33:37;;;;;;;51.75;34.30;;;5.30;99.90;;;;;;5071488;28;20219;-73
2023/11/13 01:36:05;;;;;;;55.75;35.47;;;5.20;99.90;;;;;;5064893;28;20199;-74
2023/11/13 01:38:33;;;;;;;56.85;36.08;;;5.20;99.90;;;;;;5067254;28;20283;-76
2023/11/13 01:41:00;;;;;;;42.83;29.50;;;5.20;99.90;;;;;;5073283;28;20227;-76
2023/11/13 01:43:27;;;;;;;52.78;33.28;;;5.20;99.90;;;;;;5074663;28;20222;-76
2023/11/13 01:45:57;;;;;;;47.17;32.40;;;5.10;99.90;;;;;;5073832;28;20275;-75
2023/11/13 01:48:25;;;;;;;49.65;33.03;;;5.20;99.90;;;;;;5069368;28;20239;-73
2023/11/13 01:50:52;;;;;;;55.15;34.83;;;5.20;99.90;;;;;;5070522;28;20204;-75
2023/11/13 01:53:23;;;;;;;42.28;27.20;;;5.10;99.90;;;;;;5067734;28;20200;-74
2023/11/13 01:55:51;;;;;;;41.22;30.38;;;5.10;99.90;;;;;;5066842;28;20575;-76
2023/11/13 01:58:19;;;;;;;50.28;33.35;;;5.20;99.90;;;;;;5073481;28;20211;-74
2023/11/13 02:00:47;;;;;;;49.00;32.78;;;5.00;99.90;;;;;;5065431;28;20234;-76
2023/11/13 02:03:15;;;;;;;50.40;34.17;;;5.00;99.90;;;;;;5072599;28;20212;-75
2023/11/13 02:05:43;;;;;;;43.40;29.80;;;5.00;99.90;;;;;;5067421;28;20311;-74
2023/11/13 02:08:11;;;;;;;53.00;36.30;;;5.00;99.90;;;;;;5066051;28;20282;-75
2023/11/13 02:10:39;;;;;;;51.63;34.15;;;4.90;99.90;;;;;;5064805;28;20283;-75
2023/11/13 02:13:08;;;;;;;53.83;36.30;;;4.90;99.90;;;;;;5070857;28;20209;-77
2023/11/13 02:15:36;;;;;;;52.67;35.63;;;4.90;99.90;;;;;;5068620;28;20273;-76
2023/11/13 02:18:05;;;;;;;52.85;35.20;;;4.90;99.90;;;;;;5069014;28;20205;-74
2023/11/13 02:20:34;;;;;;;48.33;33.58;;;4.80;99.90;;;;;;5072212;28;20580;-76
2023/11/13 02:23:01;;;;;;;49.55;31.77;;;4.90;99.90;;;;;;5069826;28;20245;-75
2023/11/13 02:25:31;;;;;;;50.05;31.67;;;5.00;99.90;;;;;;5072788;28;20223;-77
2023/11/13 02:27:58;;;;;;;47.95;32.35;;;4.90;99.90;;;;;;5071254;28;20668;-77
2023/11/13 02:30:25;;;;;;;50.65;32.88;;;5.00;99.90;;;;;;5074021;28;20208;-77
2023/11/13 02:32:52;;;;;;;43.10;28.90;;;5.00;99.90;;;;;;5066729;28;20265;-74
2023/11/13 02:35:20;;;;;;;41.67;29.20;;;4.90;99.90;;;;;;5068436;28;20669;-75
2023/11/13 02:37:46;;;;;;;45.58;30.75;;;5.00;99.90;;;;;;5063902;28;20210;-74
2023/11/13 02:40:13;;;;;;;54.03;30.05;;;5.00;99.90;;;;;;5072774;28;20286;-75
2023/11/13 02:42:42;;;;;;;38.25;27.08;;;4.90;99.90;;;;;;5065202;28;20282;-74
2023/11/13 02:45:10;;;;;;;38.78;28.38;;;5.00;99.90;;;;;;5071901;28;20238;-74
2023/11/13 02:47:38;;;;;;;46.38;28.88;;;4.90;99.90;;;;;;5073114;28;20210;-76
2023/11/13 02:50:06;;;;;;;42.85;28.92;;;4.90;99.90;;;;;;5065231;28;20214;-77
2023/11/13 02:52:33;;;;;;;37.25;26.75;;;4.90;99.90;;;;;;5072909;28;21026;-73
2023/11/13 02:55:00;;;;;;;43.15;29.58;;;4.90;99.90;;;;;;5065616;28;20220;-76
2023/11/13 02:57:27;;;;;;;46.78;29.63;;;5.00;99.90;;;;;;5073231;28;20612;-76
2023/11/13 02:59:56;;;;;;;37.90;26.67;;;4.90;99.90;;;;;;5063057;28;20668;-76
2023/11/13 03:02:23;;;;;;;37.35;28.10;;;5.00;99.90;;;;;;5066649;28;20203;-76
2023/11/13 03:04:51;;;;;;;36.55;26.70;;;5.00;99.90;;;;;;5063996;28;20600;-73
2023/11/13 03:07:18;;;;;;;38.75;26.83;;;5.00;99.90;;;;;;5073161;28;20236;-74
2023/11/13 03:09:44;;;;;;;33.65;25.08;;;5.00;99.90;;;;;;5072227;28;20205;-75
2023/11/13 03:12:12;;;;;;;36.63;27.17;;;5.00;99.90;;;;;;5069279;28;20234;-74
2023/11/13 03:14:38;;;;;;;33.90;23.98;;;5.10;99.90;;;;;;5064048;28;20251;-75
2023/11/13 03:17:08;;;;;;;35.90;25.38;;;5.10;99.90;;;;;;5070958;28;20230;-74
2023/11/13 03:19:34;;;;;;;40.70;25.60;;;5.10;99.90;;;;;;5069107;28;20282;-75
2023/11/13 03:22:02;;;;;;;35.33;25.60;;;5.10;99.90;;;;;;5070794;28;20223;-74
2023/11/13 03:24:29;;;;;;;32.97;21.95;;;5.10;99.90;;;;;;5065214;28;20269;-73
2023/11/13 03:26:56;;;;;;;33.13;22.83;;;5.10;99.90;;;;;;5071349;28;20202;-74
2023/11/13 03:29:23;;;;;;;32.13;23.75;;;5.20;99.90;;;;;;5064929;28;20287;-75
2023/11/13 03:31:50;;;;;;;37.28;26.52;;;5.30;99.90;;;;;;5072047;28;20632;-74
2023/11/13 03:34:18;;;;;;;39.22;25.50;;;5.30;99.90;;;;;;5067573;28;20563;-74
2023/11/13 03:36:45;;;;;;;35.87;25.90;;;5.20;99.90;;;;;;5065337;28;20206;-75
2023/11/13 03:39:13;;;;;;;34.25;25.05;;;5.10;99.90;;;;;;5068222;28;20522;-74
2023/11/13 03:41:40;;;;;;;41.08;26.27;;;5.20;99.90;;;;;;5071417;28;20291;-73
2023/11/13 03:44:07;;;;;;;27.63;22.27;;;5.10;99.90;;;;;;5070371;28;20230;-75
2023/11/13 03:46:34;;;;;;;32.33;24.27;;;5.10;99.90;;;;;;5067043;28;20199;-75
2023/11/13 03:49:01;;;;;;;43.15;27.92;;;5.10;99.90;;;;;;5072413;28;20286;-75
2023/11/13 03:51:30;;;;;;;40.22;26.35;;;4.90;99.90;;;;;;5065607;28;20631;-73
2023/11/13 03:53:58;;;;;;;41.92;27.20;;;4.80;99.90;;;;;;5057703;28;20671;-76
2023/11/13 03:56:26;;;;;;;35.63;26.30;;;4.90;99.90;;;;;;5064936;28;20223;-76
2023/11/13 03:58:53;;;;;;;27.48;20.77;;;4.90;99.90;;;;;;5065661;28;20252;-74
2023/11/13 04:01:21;;;;;;;35.70;24.95;;;4.90;99.90;;;;;;5067604;28;20216;-76
2023/11/13 04:03:48;;;;;;;35.47;23.80;;;4.90;99.90;;;;;;5065120;28;20672;-74
2023/11/13 04:06:15;;;;;;;30.73;24.48;;;4.90;99.90;;;;;;5069504;28;20215;-75
2023/11/13 04:08:43;;;;;;;34.53;24.27;;;4.80;99.90;;;;;;5065152;28;20287;-75
2023/11/13 04:11:10;;;;;;;31.67;21.15;;;4.70;99.90;;;;;;5070582;28;20294;-74
2023/11/13 04:13:37;;;;;;;30.05;22.30;;;4.80;99.90;;;;;;5064642;28;20497;-74
2023/11/13 04:16:05;;;;;;;28.73;19.65;;;4.80;99.90;;;;;;5068284;28;20203;-75
2023/11/13 04:18:32;;;;;;;32.72;23.63;;;4.80;99.90;;;;;;5072006;28;20294;-73
2023/11/13 04:20:59;;;;;;;28.30;21.45;;;4.80;99.90;;;;;;5068541;28;20210;-74
2023/11/13 04:23:27;;;;;;;29.95;23.75;;;4.80;99.90;;;;;;5072660;28;20250;-74
2023/11/13 04:25:55;;;;;;;37.70;24.35;;;4.80;99.90;;;;;;5061943;28;20278;-74
2023/11/13 04:28:22;;;;;;;32.07;22.00;;;4.70;99.90;;;;;;5068345;28;20212;-77
2023/11/13 04:30:49;;;;;;;31.42;22.67;;;4.70;99.90;;;;;;5065750;28;20450;-76
2023/11/13 04:33:16;;;;;;;36.92;23.33;;;4.70;99.90;;;;;;5068758;28;20670;-73
2023/11/13 04:35:43;;;;;;;23.05;18.27;;;4.70;99.90;;;;;;5065024;28;20729;-74
2023/11/13 04:38:10;;;;;;;23.88;19.10;;;4.70;99.90;;;;;;5069786;28;20713;-73
2023/11/13 04:40:37;;;;;;;30.95;19.98;;;4.70;99.90;;;;;;5067912;28;20298;-75
2023/11/13 04:43:08;;;;;;;26.90;19.23;;;4.70;99.90;;;;;;5062995;28;20285;-74
2023/11/13 04:45:35;;;;;;;30.33;21.67;;;4.70;99.90;;;;;;5066974;28;20302;-74
2023/11/13 04:48:02;;;;;;;26.57;18.43;;;4.70;99.90;;;;;;5064145;28;20201;-73
2023/11/13 04:50:29;;;;;;;28.65;19.40;;;4.70;99.90;;;;;;5070140;28;20442;-74
2023/11/13 04:52:56;;;;;;;29.10;22.35;;;4.70;99.90;;;;;;5066019;28;20195;-75
2023/11/13 04:55:23;;;;;;;28.08;19.30;;;4.70;99.90;;;;;;5070145;28;20238;-74
2023/11/13 04:57:50;;;;;;;32.70;22.67;;;4.60;99.90;;;;;;5066711;28;20295;-75
2023/11/13 05:00:19;;;;;;;27.80;20.00;;;4.60;99.90;;;;;;5072271;28;20379;-74
2023/11/13 05:02:46;;;;;;;33.38;21.00;;;4.60;99.90;;;;;;5069167;28;20207;-73
2023/11/13 05:05:13;;;;;;;27.85;18.40;;;4.70;99.90;;;;;;5075599;28;20601;-73
2023/11/13 05:07:40;;;;;;;32.20;17.67;;;4.70;99.90;;;;;;5073009;28;20195;-73
2023/11/13 05:10:08;;;;;;;33.47;23.38;;;4.70;99.90;;;;;;5069377;28;20203;-76
2023/11/13 05:12:35;;;;;;;20.55;17.75;;;4.60;99.90;;;;;;5073967;28;20283;-77
2023/11/13 05:15:02;;;;;;;26.40;20.92;;;4.60;99.90;;;;;;5071142;28;20212;-74
2023/11/13 05:17:30;;;;;;;21.20;16.45;;;4.60;99.90;;;;;;5075751;28;20199;-74
2023/11/13 05:19:59;;;;;;;25.33;18.60;;;4.60;99.90;;;;;;5068641;28;20235;-75
2023/11/13 05:22:26;;;;;;;26.30;19.40;;;4.60;99.90;;;;;;5067433;28;20589;-73
2023/11/13 05:24:53;;;;;;;25.40;19.30;;;4.60;99.90;;;;;;5066245;28;20230;-75
2023/11/13 05:27:20;;;;;;;21.63;18.30;;;4.60;99.90;;;;;;5070717;28;20210;-74
2023/11/13 05:29:46;;;;;;;26.17;18.20;;;4.60;99.90;;;;;;5067852;28;20218;-76
2023/11/13 05:32:13;;;;;;;22.60;17.38;;;4.50;99.90;;;;;;5072493;28;20199;-76
2023/11/13 05:34:43;;;;;;;21.50;16.80;;;4.50;99.90;;;;;;5065990;28;20327;-74
2023/11/13 05:37:11;;;;;;;26.10;17.67;;;4.50;99.90;;;;;;5074576;28;20207;-74
2023/11/13 05:39:38;;;;;;;17.05;15.18;;;4.50;99.90;;;;;;5097698;22;20227;-83
2023/11/13 05:42:06;;;;;;;25.42;17.73;;;4.60;99.90;;;;;;5077891;28;20199;-84
2023/11/13 05:44:35;;;;;;;19.25;14.48;;;4.50;99.90;;;;;;5074448;28;20270;-84
2023/11/13 05:47:08;;;;;;;33.08;17.38;;;4.50;99.90;;;;;;5080269;28;20207;-84
2023/11/13 05:49:36;;;;;;;25.15;16.52;;;4.50;99.90;;;;;;5075170;28;20228;-84
2023/11/13 05:52:05;;;;;;;20.90;15.30;;;4.60;99.90;;;;;;5088612;28;20203;-84
2023/11/13 05:54:32;;;;;;;19.48;17.40;;;4.50;99.90;;;;;;5087668;28;20256;-82
2023/11/13 05:56:59;;;;;;;21.05;16.85;;;4.70;99.90;;;;;;5089309;28;20207;-81
2023/11/13 05:59:25;;;;;;;24.38;16.05;;;4.60;99.90;;;;;;5086527;28;20239;-83
2023/11/13 06:01:54;;;;;;;22.25;17.02;;;4.60;99.90;;;;;;5079720;28;20208;-82
2023/11/13 06:04:21;;;;;;;19.40;15.98;;;4.50;99.90;;;;;;5088553;28;20241;-83
2023/11/13 06:06:48;;;;;;;20.58;15.38;;;4.60;99.90;;;;;;5089152;28;20203;-83
2023/11/13 06:09:16;;;;;;;24.10;16.83;;;4.60;99.90;;;;;;5090788;28;20223;-83
2023/11/13 06:11:45;;;;;;;23.92;15.45;;;4.60;99.90;;;;;;5087542;28;20233;-82
2023/11/13 06:14:12;;;;;;;19.92;14.73;;;4.70;99.90;;;;;;5082183;28;20203;-82
2023/11/13 06:16:39;;;;;;;18.25;13.73;;;4.80;99.90;;;;;;5080134;28;20203;-84
2023/11/13 06:19:07;;;;;;;23.42;16.45;;;4.70;99.90;;;;;;5085776;28;20229;-83
2023/11/13 06:21:34;;;;;;;17.45;14.80;;;4.70;99.90;;;;;;5082454;28;20200;-82
2023/11/13 06:24:01;;;;;;;22.00;16.00;;;4.70;99.90;;;;;;5072699;28;20262;-82
2023/11/13 06:26:29;;;;;;;19.13;14.40;;;4.70;99.90;;;;;;5084362;28;20658;-81
2023/11/13 06:28:55;;;;;;;15.80;13.25;;;4.70;99.90;;;;;;5086795;28;20230;-83
2023/11/13 06:31:22;;;;;;;19.83;13.45;;;4.70;99.90;;;;;;5081807;28;20235;-84
2023/11/13 06:33:49;;;;;;;18.02;12.82;;;4.70;99.90;;;;;;5086617;28;20249;-84
2023/11/13 06:36:16;;;;;;;16.23;11.23;;;4.70;99.90;;;;;;5087193;28;20307;-84
2023/11/13 06:38:43;;;;;;;15.35;11.27;;;4.60;99.90;;;;;;5079436;28;20276;-83
2023/11/13 06:41:11;;;;;;;16.77;11.70;;;4.60;99.90;;;;;;5088289;28;20222;-86
2023/11/13 06:43:39;;;;;;;17.98;10.68;;;4.70;99.90;;;;;;5081456;28;20271;-85
2023/11/13 06:46:06;;;;;;;19.83;14.45;;;4.70;99.90;;;;;;5083486;28;20222;-82
2023/11/13 06:48:34;;;;;;;17.30;10.60;;;4.70;99.90;;;;;;5079182;28;20196;-81
2023/11/13 06:51:02;;;;;;;14.13;11.15;;;4.60;99.90;;;;;;5083794;28;20239;-85
2023/11/13 06:53:29;;;;;;;19.33;11.75;;;4.60;99.90;;;;;;5083252;28;20206;-84
2023/11/13 06:55:55;;;;;;;16.33;11.57;;;4.60;99.90;;;;;;5077066;28;20216;-80
2023/11/13 06:58:23;;;;;;;15.05;11.25;;;4.80;99.90;;;;;;5073816;28;20199;-83
2023/11/13 07:00:55;;;;;;;12.88;9.73;;;4.70;99.90;;;;;;5094835;28;20223;-82
2023/11/13 07:03:22;;;;;;;13.80;10.43;;;4.70;99.90;;;;;;5085835;28;20234;-83
2023/11/13 07:05:49;;;;;;;34.92;10.52;;;4.70;99.90;;;;;;5083684;28;20693;-84
2023/11/13 07:08:16;;;;;;;16.58;11.73;;;4.80;99.90;;;;;;5093047;28;20192;-85
2023/11/13 07:10:43;;;;;;;16.60;12.07;;;4.80;99.90;;;;;;5095076;28;20211;-85
2023/11/13 07:13:11;;;;;;;18.17;12.07;;;5.00;99.90;;;;;;5091498;28;20211;-83
2023/11/13 07:15:38;;;;;;;11.88;9.65;;;5.00;99.90;;;;;;5093506;28;20427;-84
2023/11/13 07:18:17;;;;;;;15.93;11.45;;;5.00;99.90;;;;;;5092370;28;20205;-85
2023/11/13 07:20:45;;;;;;;20.73;11.55;;;5.20;99.90;;;;;;5085613;28;20221;-85
2023/11/13 07:23:16;;;;;;;21.73;10.38;;;5.00;99.90;;;;;;5083436;28;20191;-84
2023/11/13 07:25:45;;;;;;;19.03;9.87;;;5.00;99.90;;;;;;5084048;28;20389;-86
2023/11/13 07:28:15;;;;;;;14.50;10.40;;;5.20;99.90;;;;;;5084559;28;20487;-85
2023/11/13 07:30:42;;;;;;;11.65;8.43;;;5.20;99.90;;;;;;5083501;28;20235;-84
2023/11/13 07:33:10;;;;;;;11.88;8.90;;;5.30;99.90;;;;;;5081399;28;20218;-86
2023/11/13 07:35:38;;;;;;;15.40;11.25;;;5.30;99.90;;;;;;5082994;28;20195;-85
2023/11/13 07:38:07;;;;;;;13.63;10.80;;;5.20;99.90;;;;;;5077293;28;20204;-84
2023/11/13 07:40:41;;;;;;;16.23;10.48;;;5.20;99.90;;;;;;5082841;28;20223;-85
2023/11/13 07:43:09;;;;;;;14.70;9.30;;;5.30;99.90;;;;;;5074519;28;20203;-85
2023/11/13 07:45:38;;;;;;;12.48;9.48;;;5.20;99.90;;;;;;5081874;28;20216;-84
2023/11/13 07:48:05;;;;;;;14.88;10.73;;;5.30;99.90;;;;;;5078260;28;20207;-86
2023/11/13 07:50:34;;;;;;;16.42;8.70;;;5.20;99.90;;;;;;5086396;28;20449;-83
2023/11/13 07:53:01;;;;;;;12.18;8.57;;;5.30;99.90;;;;;;5077070;28;20273;-83
2023/11/13 07:55:29;;;;;;;17.23;9.68;;;5.30;99.90;;;;;;5086926;28;20237;-83
2023/11/13 07:57:56;;;;;;;11.48;7.88;;;5.40;99.90;;;;;;5093464;28;20200;-83
2023/11/13 08:00:24;;;;;;;9.57;7.30;;;5.40;99.90;;;;;;5093293;28;20422;-83
2023/11/13 08:02:54;;;;;;;12.60;8.20;;;5.40;99.90;;;;;;5089549;28;20187;-82
2023/11/13 08:08:08;;;;;;;14.27;10.15;;;5.40;99.90;;;;;;5073514;28;20211;-83
2023/11/13 08:10:40;;;;;;;11.60;8.93;;;5.40;99.90;;;;;;5089563;28;20231;-82
2023/11/13 08:13:07;;;;;;;12.25;8.63;;;5.40;99.90;;;;;;5082049;28;20212;-82
2023/11/13 08:15:34;;;;;;;10.48;8.13;;;5.50;99.90;;;;;;5083569;28;20232;-83
2023/11/13 08:18:02;;;;;;;12.18;7.53;;;5.70;99.90;;;;;;5080245;28;20200;-81
2023/11/13 08:20:28;;;;;;;10.27;8.45;;;5.60;99.90;;;;;;5076512;28;20230;-81
2023/11/13 08:22:57;;;;;;;12.23;8.27;;;5.60;99.90;;;;;;5087583;28;20232;-80
2023/11/13 08:25:26;;;;;;;13.43;9.73;;;5.60;99.90;;;;;;5087378;28;20225;-81
2023/11/13 08:27:53;;;;;;;12.60;8.52;;;5.70;99.90;;;;;;5087684;28;20196;-82
2023/11/13 08:30:22;;;;;;;14.95;9.25;;;5.70;99.90;;;;;;5089544;28;20220;-81
2023/11/13 08:32:51;;;;;;;16.52;8.00;;;5.90;99.90;;;;;;5076202;28;20199;-80
2023/11/13 08:35:19;;;;;;;19.27;9.93;;;6.00;99.90;;;;;;5080155;28;20204;-82
2023/11/13 08:37:47;;;;;;;10.85;8.57;;;6.20;99.90;;;;;;5082055;28;20211;-81
2023/11/13 08:40:17;;;;;;;9.25;8.35;;;6.30;99.90;;;;;;5085178;28;20225;-81
2023/11/13 08:42:46;;;;;;;19.58;9.23;;;6.60;99.90;;;;;;5083046;28;20207;-81
2023/11/13 08:45:15;;;;;;;11.43;7.88;;;6.50;99.90;;;;;;5087417;28;20230;-81
2023/11/13 08:47:42;;;;;;;21.38;8.85;;;6.70;99.90;;;;;;5085579;28;20195;-80
2023/11/13 08:50:11;;;;;;;9.38;6.40;;;7.00;99.90;;;;;;5092945;28;20222;-80
2023/11/13 08:52:40;;;;;;;9.85;6.15;;;7.20;99.90;;;;;;5081154;28;20226;-82
2023/11/13 08:55:11;;;;;;;8.50;7.03;;;7.40;99.90;;;;;;5092993;28;20201;-81
2023/11/13 08:57:41;;;;;;;8.40;5.97;;;7.70;99.90;;;;;;5093746;28;20213;-81
2023/11/13 09:00:17;;;;;;;8.63;6.00;;;8.00;99.90;;;;;;5088336;28;20227;-81
2023/11/13 09:02:44;;;;;;;7.15;6.22;;;8.40;99.90;;;;;;5069729;28;20442;-80
2023/11/13 09:05:13;;;;;;;9.50;6.18;;;8.90;99.90;;;;;;5085788;28;20214;-83
2023/11/13 09:07:39;;;;;;;12.95;6.10;;;9.00;99.90;;;;;;5071543;28;20207;-82
2023/11/13 09:10:09;;;;;;;7.13;6.13;;;9.20;99.90;;;;;;5064555;28;20302;-81
2023/11/13 09:12:39;;;;;;;11.63;7.43;;;9.20;99.90;;;;;;5074288;28;20203;-83
2023/11/13 09:15:13;;;;;;;7.47;6.68;;;8.80;99.90;;;;;;5074385;28;20207;-81
2023/11/13 09:17:45;;;;;;;10.13;7.38;;;8.60;99.90;;;;;;5082041;28;20206;-82
2023/11/13 09:20:15;;;;;;;9.85;8.18;;;8.60;99.90;;;;;;5086540;28;20242;-82
2023/11/13 09:22:43;;;;;;;9.63;8.70;;;8.50;99.90;;;;;;5086313;28;20225;-82
2023/11/13 09:25:19;;;;;;;10.05;8.63;;;8.40;99.90;;;;;;5078816;28;20289;-85
2023/11/13 09:27:47;;;;;;;10.00;7.55;;;8.40;99.90;;;;;;5076129;28;20233;-82
2023/11/13 09:30:18;;;;;;;8.70;7.55;;;8.50;99.90;;;;;;5097229;28;20215;-86
2023/11/13 09:32:46;;;;;;;10.52;8.48;;;8.60;99.90;;;;;;5087284;28;20219;-84
2023/11/13 09:35:18;;;;;;;10.80;7.93;;;8.60;99.90;;;;;;5078142;28;20297;-83
2023/11/13 09:37:47;;;;;;;9.85;8.23;;;8.50;99.90;;;;;;5083796;28;20207;-85
2023/11/13 09:40:18;;;;;;;10.95;8.60;;;8.80;99.90;;;;;;5087714;28;20234;-84
2023/11/13 09:42:48;;;;;;;10.82;8.63;;;8.70;99.90;;;;;;5079324;28;20207;-84
2023/11/13 09:45:17;;;;;;;11.38;9.13;;;8.80;99.90;;;;;;5080026;28;20203;-82
2023/11/13 09:47:46;;;;;;;15.68;8.07;;;8.70;99.90;;;;;;5081335;28;20300;-81
2023/11/13 09:50:17;;;;;;;10.70;7.82;;;8.70;99.90;;;;;;5078836;28;20295;-82
2023/11/13 09:52:47;;;;;;;12.50;7.72;;;9.00;99.90;;;;;;5074600;28;20242;-83
2023/11/13 09:55:18;;;;;;;11.93;8.45;;;9.70;99.90;;;;;;5078865;28;20183;-85
2023/11/13 09:57:45;;;;;;;9.23;8.23;;;10.10;99.90;;;;;;5085506;28;20194;-84
2023/11/13 10:00:20;;;;;;;11.90;8.18;;;10.20;99.90;;;;;;5079634;28;20222;-82
2023/11/13 10:02:48;;;;;;;12.20;8.23;;;9.90;99.90;;;;;;5082739;28;20201;-81
2023/11/13 10:05:16;;;;;;;11.98;7.95;;;9.50;99.90;;;;;;5078137;28;20199;-85
2023/11/13 10:07:47;;;;;;;24.10;10.48;;;9.50;99.90;;;;;;5098164;28;20403;-84
2023/11/13 10:10:21;;;;;;;11.27;10.02;;;9.30;99.90;;;;;;5092133;28;20282;-81
2023/11/13 10:12:49;;;;;;;13.38;8.93;;;9.10;99.90;;;;;;5094566;28;20205;-85
2023/11/13 10:15:24;;;;;;;15.52;9.90;;;8.80;99.90;;;;;;5094003;28;20186;-85
2023/11/13 10:17:51;;;;;;;14.33;10.30;;;8.90;99.90;;;;;;5086002;28;20229;-85
2023/11/13 10:20:19;;;;;;;12.95;10.52;;;9.00;99.90;;;;;;5092171;28;20541;-83
2023/11/13 10:22:56;;;;;;;16.95;10.35;;;9.10;99.90;;;;;;5089014;28;20378;-84
2023/11/13 10:25:24;;;;;;;12.45;11.15;;;9.00;99.90;;;;;;5082298;28;20465;-81
2023/11/13 10:27:58;;;;;;;11.52;9.27;;;8.90;99.90;;;;;;5087972;28;20581;-81
2023/11/13 10:30:29;;;;;;;16.65;11.85;;;8.80;99.90;;;;;;5092293;28;20634;-81
2023/11/13 10:32:59;;;;;;;13.75;10.10;;;8.60;99.90;;;;;;5087119;28;20226;-83
2023/11/13 10:35:35;;;;;;;14.50;11.70;;;8.80;99.90;;;;;;5085889;28;20200;-83
2023/11/13 10:38:07;;;;;;;20.13;11.90;;;8.50;99.90;;;;;;5072604;28;20222;-82
2023/11/13 10:40:39;;;;;;;13.90;10.75;;;8.70;99.90;;;;;;5081140;28;20231;-80
2023/11/13 10:43:07;;;;;;;15.75;9.55;;;8.40;99.90;;;;;;5084157;28;20253;-80
2023/11/13 10:45:36;;;;;;;14.20;11.32;;;8.40;99.90;;;;;;5088953;28;20203;-81
2023/11/13 10:48:04;;;;;;;13.10;10.98;;;8.40;99.90;;;;;;5087766;28;20203;-81
2023/11/13 10:50:33;;;;;;;15.95;11.32;;;8.50;99.90;;;;;;5085842;28;20225;-80
2023/11/13 10:53:03;;;;;;;16.23;11.32;;;8.30;99.90;;;;;;5094218;28;20438;-80
2023/11/13 10:55:30;;;;;;;15.10;11.05;;;8.40;99.90;;;;;;5083275;28;20188;-80
2023/11/13 10:57:58;;;;;;;14.63;10.02;;;8.30;99.90;;;;;;5100111;28;20247;-81
2023/11/13 11:00:29;;;;;;;16.52;11.07;;;8.40;99.90;;;;;;5088896;28;20219;-82
2023/11/13 11:03:05;;;;;;;16.00;12.23;;;8.30;99.90;;;;;;5072640;28;20200;-81
2023/11/13 11:05:35;;;;;;;15.60;13.07;;;8.40;99.90;;;;;;5083119;28;20316;-82
2023/11/13 11:08:08;;;;;;;18.63;11.82;;;8.40;99.90;;;;;;5077280;28;20451;-81
2023/11/13 11:10:48;;;;;;;18.75;13.05;;;8.30;99.90;;;;;;5072067;28;20250;-82
2023/11/13 11:13:38;;;;;;;17.90;13.27;;;8.10;99.90;;;;;;5069922;28;20200;-81
2023/11/13 11:16:38;;;;;;;18.95;13.75;;;8.10;99.90;;;;;;5070243;28;20212;-81
2023/11/13 11:19:32;;;;;;;18.58;14.75;;;8.00;99.90;;;;;;5092208;28;20234;-82
2023/11/13 11:22:32;;;;;;;22.77;13.13;;;7.80;99.90;;;;;;5082192;28;20214;-81
2023/11/13 11:25:43;;;;;;;;;;;;;;;;;;;;;
2023/11/13 11:35:01;;;;;;;;;;;;;;;;;;;;;
2023/11/13 11:40:29;;;;;;;22.15;14.93;;;7.40;99.90;;;;;;5087881;22;20241;-81
2023/11/13 11:42:55;;;;;;;28.00;17.33;;;7.50;99.90;;;;;;5075877;28;20208;-79
2023/11/13 11:45:23;;;;;;;23.13;14.70;;;7.50;99.90;;;;;;5074996;28;20450;-80
2023/11/13 11:47:54;;;;;;;23.15;16.05;;;7.60;99.90;;;;;;5074826;28;20256;-82
2023/11/13 11:50:24;;;;;;;23.42;16.50;;;7.60;99.90;;;;;;5062269;28;20226;-81
2023/11/13 11:52:54;;;;;;;21.98;15.90;;;7.50;99.90;;;;;;5052727;28;20286;-81
2023/11/13 11:55:22;;;;;;;27.13;14.35;;;7.60;99.90;;;;;;5075848;28;20609;-80
2023/11/13 11:57:50;;;;;;;31.52;17.25;;;7.60;99.90;;;;;;5062993;28;20211;-80
2023/11/13 12:00:19;;;;;;;23.85;16.25;;;7.60;99.90;;;;;;5067790;28;20312;-79
2023/11/13 12:02:46;;;;;;;24.52;18.05;;;7.60;99.90;;;;;;5057924;28;20282;-78
2023/11/13 12:05:13;;;;;;;25.50;17.30;;;7.70;99.90;;;;;;5055754;28;20297;-80
2023/11/13 12:07:42;;;;;;;26.05;18.05;;;7.70;99.90;;;;;;5066010;28;20306;-81
2023/11/13 12:10:12;;;;;;;27.48;17.08;;;7.70;99.90;;;;;;5054466;28;20226;-82
2023/11/13 12:12:41;;;;;;;24.92;15.30;;;7.60;99.90;;;;;;5063568;28;20207;-83
2023/11/13 12:15:10;;;;;;;20.65;13.90;;;7.70;99.90;;;;;;5061042;28;20195;-80
2023/11/13 12:17:38;;;;;;;20.92;13.75;;;7.70;99.90;;;;;;5067005;28;20226;-80
2023/11/13 12:20:06;;;;;;;22.73;16.50;;;7.80;99.90;;;;;;5065949;28;20740;-79
2023/11/13 12:22:35;;;;;;;27.38;16.08;;;7.80;99.90;;;;;;5059676;28;20209;-80
2023/11/13 12:25:05;;;;;;;19.15;13.63;;;7.80;99.90;;;;;;5069500;28;20211;-80
2023/11/13 12:27:31;;;;;;;24.58;19.52;;;7.80;99.90;;;;;;5056996;28;20464;-81
2023/11/13 12:30:04;;;;;;;18.80;14.85;;;7.90;99.90;;;;;;5065933;28;20247;-81
2023/11/13 12:32:32;;;;;;;21.73;15.15;;;8.10;99.90;;;;;;5062595;28;20577;-81
2023/11/13 12:35:00;;;;;;;20.45;14.50;;;8.10;99.90;;;;;;5067110;28;20243;-82
2023/11/13 12:37:28;;;;;;;19.45;14.10;;;8.00;99.90;;;;;;5075645;28;21299;-79
2023/11/13 12:39:55;;;;;;;21.17;14.50;;;8.10;99.90;;;;;;5080724;28;20224;-81
2023/11/13 12:42:23;;;;;;;17.77;12.98;;;8.00;99.90;;;;;;5065418;28;20242;-82
2023/11/13 12:44:53;;;;;;;16.27;12.98;;;8.00;99.90;;;;;;5060337;28;20223;-83
2023/11/13 12:47:21;;;;;;;23.48;14.50;;;8.00;99.90;;;;;;5083024;28;20215;-86
2023/11/13 12:49:49;;;;;;;20.92;14.85;;;8.10;99.90;;;;;;5074205;28;20232;-83
2023/11/13 12:52:17;;;;;;;20.90;13.80;;;8.00;99.90;;;;;;5087558;28;20224;-82
2023/11/13 12:54:45;;;;;;;20.80;13.10;;;8.10;99.90;;;;;;5072608;28;20208;-82
2023/11/13 12:57:17;;;;;;;16.08;12.50;;;8.10;99.90;;;;;;5069726;28;20194;-85
2023/11/13 12:59:46;;;;;;;18.92;14.07;;;8.20;99.90;;;;;;5078299;28;20662;-83